Time;durP1;ratioP1;P1;durP2;ratioP2;P2;SDS_P1;SDS_P2;PMS_P1;PMS_P2;Temp;Humidity;BMP_temperature;BMP_pressure;BME280_temperature;BME280_humidity;BME280_pressure;Samples;Min_cycle;Max_cycle;Signal;HPM_P1;HPM_P2
2021/01/05 00:04:37;;;;;;;1.15;0.75;;;16.30;62.60;;;;;;10496656;28;20467;-64
2021/01/05 00:09:38;;;;;;;0.82;0.60;;;16.30;62.60;;;;;;10495009;28;20033;-64
2021/01/05 00:14:44;;;;;;;1.48;0.80;;;16.30;62.60;;;;;;10496492;28;20443;-64
2021/01/05 00:19:47;;;;;;;1.65;0.85;;;16.30;62.60;;;;;;10496580;28;20028;-64
2021/01/05 00:24:48;;;;;;;1.33;0.80;;;16.20;62.60;;;;;;10496116;28;20044;-64
2021/01/05 00:29:48;;;;;;;1.15;0.75;;;16.20;62.70;;;;;;10496352;28;20060;-64
2021/01/05 00:34:49;;;;;;;0.93;0.57;;;16.20;62.70;;;;;;10496217;28;20477;-64
2021/01/05 00:39:50;;;;;;;1.50;0.85;;;16.20;62.70;;;;;;10495855;28;20058;-64
2021/01/05 00:44:51;;;;;;;0.82;0.60;;;16.10;62.70;;;;;;10519015;28;20107;-64
2021/01/05 00:49:51;;;;;;;1.02;0.82;;;16.10;62.70;;;;;;10502139;28;20169;-64
2021/01/05 00:54:52;;;;;;;1.55;0.75;;;16.10;62.70;;;;;;10503850;28;20116;-64
2021/01/05 00:59:53;;;;;;;1.15;0.90;;;16.10;62.60;;;;;;10503860;28;20033;-64
2021/01/05 01:04:54;;;;;;;1.25;0.80;;;16.00;62.50;;;;;;10503285;28;20151;-64
2021/01/05 01:09:54;;;;;;;1.50;0.73;;;16.10;62.60;;;;;;10501562;28;20365;-64
2021/01/05 01:14:55;;;;;;;1.38;0.85;;;16.00;62.50;;;;;;10501956;28;20124;-64
2021/01/05 01:19:56;;;;;;;1.15;0.70;;;16.00;62.60;;;;;;10502435;28;20035;-63
2021/01/05 01:24:57;;;;;;;1.45;0.88;;;16.00;62.60;;;;;;10502680;28;20028;-65
2021/01/05 01:29:57;;;;;;;1.08;0.80;;;16.00;62.70;;;;;;10502195;28;20115;-64
2021/01/05 01:34:58;;;;;;;2.13;1.33;;;15.90;62.70;;;;;;10501450;28;20032;-65
2021/01/05 01:39:59;;;;;;;1.42;0.88;;;15.90;62.70;;;;;;10501697;28;20123;-64
2021/01/05 01:45:00;;;;;;;2.00;1.25;;;15.90;62.80;;;;;;10501841;28;20384;-64
2021/01/05 01:50:17;;;;;;;1.25;0.90;;;15.90;62.70;;;;;;10501376;28;20029;-64
2021/01/05 01:55:47;;;;;;;2.05;1.00;;;15.80;62.70;;;;;;10500576;28;20032;-64
2021/01/05 02:01:10;;;;;;;1.20;0.75;;;15.90;62.80;;;;;;10496124;28;20028;-64
2021/01/05 02:06:43;;;;;;;1.20;0.90;;;15.80;62.70;;;;;;10500655;28;20028;-63
2021/01/05 02:12:03;;;;;;;1.65;0.80;;;15.80;62.70;;;;;;10501113;28;20029;-61
2021/01/05 02:17:57;;;;;;;1.20;0.93;;;15.80;62.80;;;;;;10488998;28;20052;-61
2021/01/05 02:23:41;;;;;;;1.25;0.80;;;15.80;62.80;;;;;;10497930;28;20043;-61
2021/01/05 02:29:03;;;;;;;1.27;0.98;;;15.80;62.80;;;;;;10498785;28;20458;-61
2021/01/05 02:35:24;;;;;;;2.17;0.90;;;15.70;62.80;;;;;;10479662;28;20029;-61
2021/01/05 02:40:55;;;;;;;1.10;0.73;;;15.70;62.90;;;;;;10443064;28;20045;-61
2021/01/05 02:46:27;;;;;;;0.85;0.77;;;15.70;62.80;;;;;;10489215;28;20289;-61
2021/01/05 02:52:13;;;;;;;1.98;1.27;;;15.70;62.90;;;;;;10496682;28;20115;-61
2021/01/05 02:57:59;;;;;;;1.30;0.98;;;15.60;62.80;;;;;;10513305;28;20115;-61
2021/01/05 03:03:40;;;;;;;1.45;1.00;;;15.60;62.90;;;;;;10512833;28;20031;-61
2021/01/05 03:08:52;;;;;;;1.90;1.00;;;15.60;62.90;;;;;;10511403;28;20035;-61
2021/01/05 03:14:07;;;;;;;2.05;1.05;;;15.60;62.90;;;;;;10493464;28;20473;-61
2021/01/05 03:19:40;;;;;;;1.63;0.90;;;15.60;63.50;;;;;;10496276;28;20052;-61
2021/01/05 03:24:44;;;;;;;1.88;0.82;;;15.50;62.90;;;;;;10488471;28;20431;-61
2021/01/05 03:29:45;;;;;;;1.20;0.80;;;15.60;62.90;;;;;;10497423;28;20086;-61
2021/01/05 03:34:45;;;;;;;1.33;0.95;;;15.50;62.90;;;;;;10497566;28;20024;-61
2021/01/05 03:39:46;;;;;;;1.02;0.77;;;15.50;62.90;;;;;;10497497;28;20028;-61
2021/01/05 03:44:47;;;;;;;1.58;1.08;;;15.50;63.00;;;;;;10497083;28;20092;-61
2021/01/05 03:49:48;;;;;;;2.28;1.52;;;15.50;63.00;;;;;;10497038;28;20416;-61
2021/01/05 03:54:48;;;;;;;1.63;1.17;;;15.50;62.90;;;;;;10497273;28;20111;-61
2021/01/05 03:59:49;;;;;;;1.00;0.80;;;15.40;62.90;;;;;;10497528;28;20071;-61
2021/01/05 04:04:50;;;;;;;1.67;1.20;;;15.40;63.00;;;;;;10496568;28;20480;-61
2021/01/05 04:09:51;;;;;;;0.93;0.82;;;15.40;63.00;;;;;;10496678;28;20484;-61
2021/01/05 04:14:52;;;;;;;1.58;0.90;;;15.40;63.10;;;;;;10495906;28;20501;-61
2021/01/05 04:19:52;;;;;;;2.05;1.20;;;15.40;63.10;;;;;;10496180;28;20111;-61
2021/01/05 04:24:53;;;;;;;1.92;1.20;;;15.40;63.70;;;;;;10503515;28;20434;-62
2021/01/05 04:29:54;;;;;;;1.83;1.00;;;15.40;63.00;;;;;;10504493;28;20029;-61
2021/01/05 04:34:55;;;;;;;1.15;0.90;;;15.30;62.90;;;;;;10504767;28;20025;-61
2021/01/05 04:39:55;;;;;;;1.42;1.10;;;15.30;63.00;;;;;;10504483;28;20064;-61
2021/01/05 04:45:12;;;;;;;1.88;1.00;;;15.30;63.10;;;;;;10504296;28;20104;-61
2021/01/05 04:50:35;;;;;;;2.17;1.20;;;15.30;63.00;;;;;;10502974;28;20060;-60
2021/01/05 04:55:58;;;;;;;1.63;1.30;;;15.30;63.10;;;;;;10503126;28;20108;-61
2021/01/05 05:01:13;;;;;;;2.03;1.33;;;15.30;63.00;;;;;;10501907;28;20040;-61
2021/01/05 05:06:25;;;;;;;1.73;1.30;;;15.20;63.00;;;;;;10501988;28;20054;-61
2021/01/05 05:11:52;;;;;;;1.70;1.00;;;15.20;63.00;;;;;;10498135;28;20157;-61
2021/01/05 05:17:14;;;;;;;2.05;1.10;;;15.20;63.00;;;;;;10491797;28;20127;-61
2021/01/05 05:22:35;;;;;;;1.42;1.02;;;15.20;63.00;;;;;;10500381;28;20361;-61
2021/01/05 05:27:46;;;;;;;2.72;1.10;;;15.20;63.00;;;;;;10489235;28;20025;-61
2021/01/05 05:32:51;;;;;;;2.47;1.05;;;15.20;63.00;;;;;;10492482;28;20024;-61
2021/01/05 05:38:02;;;;;;;2.33;1.70;;;15.10;63.10;;;;;;10495360;28;20032;-61
2021/01/05 05:43:57;;;;;;;2.50;1.45;;;15.10;63.10;;;;;;10501465;28;20040;-61
2021/01/05 05:48:57;;;;;;;1.65;1.23;;;15.20;63.00;;;;;;10438261;28;20048;-61
2021/01/05 05:54:21;;;;;;;1.83;1.20;;;15.30;63.30;;;;;;10501165;28;20418;-61
2021/01/05 05:59:48;;;;;;;2.72;1.35;;;15.40;63.00;;;;;;10501178;28;20111;-61
2021/01/05 06:04:52;;;;;;;2.20;1.00;;;15.50;62.70;;;;;;10499976;28;20060;-61
2021/01/05 06:09:52;;;;;;;1.25;1.00;;;15.50;62.60;;;;;;10499059;28;20046;-61
2021/01/05 06:14:53;;;;;;;1.90;0.90;;;15.60;62.60;;;;;;10500494;28;20135;-58
2021/01/05 06:19:53;;;;;;;4.47;1.15;;;15.70;63.30;;;;;;10501220;28;20070;-57
2021/01/05 06:24:54;;;;;;;4.40;1.00;;;15.90;63.60;;;;;;10499466;28;20231;-57
2021/01/05 06:29:55;;;;;;;6.10;1.33;;;16.10;63.60;;;;;;10499839;28;20446;-57
2021/01/05 06:34:55;;;;;;;3.38;0.80;;;16.30;64.10;;;;;;10499964;28;20034;-58
2021/01/05 06:39:56;;;;;;;6.90;1.20;;;16.40;64.10;;;;;;10499474;28;20060;-57
2021/01/05 06:44:57;;;;;;;6.50;1.83;;;16.50;64.30;;;;;;10499410;28;20025;-58
2021/01/05 06:49:58;;;;;;;3.95;1.40;;;16.60;64.10;;;;;;10496868;28;20036;-57
2021/01/05 06:54:58;;;;;;;3.72;1.40;;;16.60;63.60;;;;;;10498565;28;20715;-58
2021/01/05 06:59:59;;;;;;;5.00;1.58;;;16.60;63.20;;;;;;10482344;28;20367;-58
2021/01/05 07:05:00;;;;;;;4.85;1.50;;;16.70;63.10;;;;;;10492400;28;20579;-61
2021/01/05 07:10:01;;;;;;;3.75;1.55;;;16.70;62.80;;;;;;10502334;28;20025;-59
2021/01/05 07:15:04;;;;;;;4.43;1.77;;;16.70;62.60;;;;;;10483274;28;20119;-59
2021/01/05 07:20:08;;;;;;;4.45;1.52;;;16.70;62.50;;;;;;10493244;28;20531;-60
2021/01/05 07:25:14;;;;;;;3.58;1.30;;;16.70;62.40;;;;;;10497346;28;20454;-59
2021/01/05 07:30:16;;;;;;;4.47;2.13;;;16.70;62.20;;;;;;10496690;28;20500;-60
2021/01/05 07:35:16;;;;;;;3.13;1.20;;;16.70;62.20;;;;;;10494127;28;20487;-59
2021/01/05 07:40:17;;;;;;;3.53;1.23;;;16.80;62.10;;;;;;10487457;28;20032;-58
2021/01/05 07:45:22;;;;;;;5.40;1.60;;;16.80;61.90;;;;;;10495381;28;20038;-58
2021/01/05 07:50:25;;;;;;;3.95;1.48;;;16.90;62.20;;;;;;10478281;28;20048;-59
2021/01/05 07:55:28;;;;;;;2.70;1.20;;;16.90;62.30;;;;;;10483334;28;20123;-60
2021/01/05 08:00:29;;;;;;;2.63;1.52;;;16.80;62.40;;;;;;10481848;28;20028;-59
2021/01/05 08:05:30;;;;;;;4.75;1.88;;;16.80;62.50;;;;;;10495534;28;20484;-59
2021/01/05 08:10:34;;;;;;;2.45;1.50;;;16.80;62.50;;;;;;10481133;28;20177;-60
2021/01/05 08:15:35;;;;;;;3.22;1.23;;;16.80;62.70;;;;;;10463304;28;20498;-59
2021/01/05 08:20:36;;;;;;;2.28;1.10;;;16.80;62.80;;;;;;10493580;28;20081;-59
2021/01/05 08:25:37;;;;;;;2.20;1.40;;;16.70;62.80;;;;;;10495376;28;20032;-57
2021/01/05 08:30:39;;;;;;;1.70;1.20;;;16.80;62.70;;;;;;10484272;28;20029;-57
2021/01/05 08:35:40;;;;;;;2.75;1.30;;;16.70;62.80;;;;;;10492148;28;20033;-58
2021/01/05 08:40:41;;;;;;;2.35;1.13;;;16.80;62.80;;;;;;10495711;28;20424;-57
2021/01/05 08:45:41;;;;;;;2.72;1.52;;;16.80;62.80;;;;;;10495931;28;20436;-57
2021/01/05 08:50:42;;;;;;;2.85;1.52;;;16.80;62.60;;;;;;10495420;28;20108;-57
2021/01/05 08:55:43;;;;;;;2.72;1.42;;;16.80;62.70;;;;;;10495641;28;20017;-58
2021/01/05 09:00:44;;;;;;;2.38;1.38;;;16.80;63.40;;;;;;10495425;28;20434;-57
2021/01/05 09:05:45;;;;;;;2.45;1.23;;;16.80;62.60;;;;;;10495660;28;20073;-56
2021/01/05 09:10:46;;;;;;;2.30;1.40;;;16.80;62.70;;;;;;10468067;28;20082;-59
2021/01/05 09:15:46;;;;;;;2.33;1.35;;;16.80;62.70;;;;;;10487722;28;20120;-58
2021/01/05 09:20:53;;;;;;;1.90;1.13;;;16.90;62.60;;;;;;10495558;28;20487;-58
2021/01/05 09:25:55;;;;;;;3.15;1.10;;;17.10;62.20;;;;;;10502483;28;20028;-58
2021/01/05 09:30:55;;;;;;;2.33;1.00;;;17.20;61.90;;;;;;10502203;28;20033;-58
2021/01/05 09:35:56;;;;;;;1.92;1.00;;;17.40;61.60;;;;;;10496366;28;20380;-58
2021/01/05 09:40:57;;;;;;;2.25;1.20;;;17.50;61.40;;;;;;10495202;28;20484;-59
2021/01/05 09:45:58;;;;;;;2.15;1.40;;;17.60;61.20;;;;;;10498619;28;20321;-58
2021/01/05 09:50:58;;;;;;;2.00;1.20;;;17.70;61.00;;;;;;10499574;28;20807;-57
2021/01/05 09:55:59;;;;;;;2.15;1.13;;;17.70;60.80;;;;;;10503502;28;20127;-58
2021/01/05 10:01:00;;;;;;;1.85;1.02;;;17.80;60.60;;;;;;10485615;28;20541;-58
2021/01/05 10:06:00;;;;;;;1.40;0.82;;;17.90;60.50;;;;;;10498575;28;20100;-58
2021/01/05 10:11:01;;;;;;;1.90;1.30;;;18.00;60.30;;;;;;10500143;28;20442;-58
2021/01/05 10:16:02;;;;;;;0.93;0.65;;;18.00;60.10;;;;;;10475999;28;20120;-58
2021/01/05 10:21:03;;;;;;;2.20;1.23;;;18.00;60.20;;;;;;10473449;28;20043;-58
2021/01/05 10:26:03;;;;;;;3.00;1.10;;;18.10;60.20;;;;;;10500162;28;20021;-57
2021/01/05 10:31:04;;;;;;;2.17;1.05;;;18.20;60.00;;;;;;10494091;28;20139;-58
2021/01/05 10:36:06;;;;;;;3.20;0.82;;;18.20;59.80;;;;;;10489367;28;20028;-58
2021/01/05 10:41:06;;;;;;;1.40;0.82;;;18.20;59.90;;;;;;10486274;28;20039;-59
2021/01/05 10:46:07;;;;;;;2.28;1.17;;;18.20;60.00;;;;;;10491285;28;20108;-57
2021/01/05 10:51:08;;;;;;;1.65;0.95;;;18.20;60.00;;;;;;10485627;28;20037;-58
2021/01/05 10:56:14;;;;;;;0.82;0.65;;;18.20;59.90;;;;;;10486827;28;20115;-57
2021/01/05 11:01:15;;;;;;;1.25;0.85;;;18.20;59.90;;;;;;10495578;28;20170;-58
2021/01/05 11:06:16;;;;;;;2.55;1.20;;;18.20;60.10;;;;;;10488572;28;20103;-58
2021/01/05 11:11:19;;;;;;;1.75;0.75;;;18.20;60.10;;;;;;10497810;28;20047;-60
2021/01/05 11:16:20;;;;;;;1.40;0.70;;;18.20;60.10;;;;;;10498068;28;20066;-59
2021/01/05 11:21:21;;;;;;;3.47;1.58;;;18.20;60.10;;;;;;10493034;28;20112;-59
2021/01/05 11:26:21;;;;;;;3.15;0.93;;;18.20;60.30;;;;;;10496189;28;20532;-58
2021/01/05 11:31:22;;;;;;;2.60;1.08;;;18.20;60.30;;;;;;10490032;28;20111;-59
2021/01/05 11:36:26;;;;;;;2.03;1.13;;;18.20;60.30;;;;;;10497225;28;20046;-59
2021/01/05 11:41:34;;;;;;;2.22;1.15;;;18.20;60.30;;;;;;10493752;28;20033;-59
2021/01/05 11:46:35;;;;;;;1.45;0.95;;;18.20;60.40;;;;;;10492539;28;20395;-59
2021/01/05 11:51:37;;;;;;;2.95;1.00;;;18.20;60.30;;;;;;10495862;28;20028;-59
2021/01/05 11:56:38;;;;;;;4.53;1.08;;;18.20;60.40;;;;;;10485150;28;20029;-59
2021/01/05 12:01:39;;;;;;;3.10;1.38;;;18.20;60.30;;;;;;10484484;28;20495;-59
2021/01/05 12:06:45;;;;;;;6.28;1.50;;;18.10;60.40;;;;;;10495106;28;20052;-59
2021/01/05 12:11:46;;;;;;;4.35;1.13;;;18.10;60.40;;;;;;10491977;28;20024;-60
2021/01/05 12:16:48;;;;;;;3.00;1.40;;;18.10;60.30;;;;;;10496257;28;20036;-60
2021/01/05 12:21:50;;;;;;;2.38;1.20;;;18.10;60.40;;;;;;10493166;28;20063;-60
2021/01/05 12:26:51;;;;;;;3.08;1.10;;;18.00;60.20;;;;;;10496071;28;20416;-59
2021/01/05 12:32:00;;;;;;;2.72;1.10;;;18.00;60.30;;;;;;10490315;28;20107;-60
2021/01/05 12:37:05;;;;;;;3.25;1.58;;;18.00;60.10;;;;;;10495324;28;20453;-59
2021/01/05 12:42:26;;;;;;;4.60;1.45;;;18.10;60.00;;;;;;10489975;28;20036;-59
2021/01/05 12:47:27;;;;;;;5.07;1.27;;;18.10;61.90;;;;;;10495050;28;20074;-58
2021/01/05 12:52:28;;;;;;;3.72;1.67;;;18.10;61.50;;;;;;10502891;28;20021;-60
2021/01/05 12:57:29;;;;;;;3.95;1.63;;;18.10;61.00;;;;;;10500202;28;20033;-60
2021/01/05 13:02:31;;;;;;;3.75;1.50;;;18.10;60.40;;;;;;10503241;28;20106;-59
2021/01/05 13:07:32;;;;;;;4.55;1.67;;;18.10;60.20;;;;;;10501340;28;20025;-60
2021/01/05 13:12:33;;;;;;;3.22;1.42;;;18.10;60.20;;;;;;10498921;28;20029;-60
2021/01/05 13:17:39;;;;;;;4.55;1.70;;;18.10;60.30;;;;;;10500601;28;20705;-59
2021/01/05 13:22:41;;;;;;;4.45;2.10;;;18.10;59.90;;;;;;10500855;28;20101;-58
2021/01/05 13:27:42;;;;;;;7.18;2.47;;;18.10;59.10;;;;;;10491033;28;20021;-59
2021/01/05 13:32:43;;;;;;;4.93;2.08;;;18.10;58.50;;;;;;10497560;28;20446;-61
2021/01/05 13:37:44;;;;;;;7.82;2.55;;;18.10;57.90;;;;;;10500443;28;20033;-59
2021/01/05 13:42:45;;;;;;;4.90;2.60;;;18.20;57.00;;;;;;10501861;28;20469;-59
2021/01/05 13:47:46;;;;;;;6.03;2.78;;;18.30;56.30;;;;;;10501157;28;20127;-59
2021/01/05 13:52:49;;;;;;;6.30;3.60;;;18.30;55.80;;;;;;10501381;28;20424;-59
2021/01/05 13:57:50;;;;;;;5.05;3.15;;;18.20;55.60;;;;;;10499956;28;20037;-59
2021/01/05 14:02:51;;;;;;;4.15;2.85;;;18.10;55.40;;;;;;10494242;28;20469;-59
2021/01/05 14:07:51;;;;;;;4.78;3.05;;;18.20;55.30;;;;;;10500798;28;20120;-58
2021/01/05 14:12:52;;;;;;;10.27;3.78;;;18.30;55.40;;;;;;10500707;28;20042;-61
2021/01/05 14:17:53;;;;;;;7.82;3.40;;;18.40;55.30;;;;;;10500218;28;20044;-59
2021/01/05 14:22:54;;;;;;;5.78;3.88;;;18.50;55.30;;;;;;10495326;28;20112;-60
2021/01/05 14:27:54;;;;;;;7.90;4.38;;;18.50;55.10;;;;;;10465740;28;20029;-59
2021/01/05 14:32:55;;;;;;;7.38;3.88;;;18.50;55.60;;;;;;10497701;28;20021;-58
2021/01/05 14:37:56;;;;;;;4.85;3.85;;;18.60;55.60;;;;;;10496241;28;20482;-59
2021/01/05 14:42:56;;;;;;;9.60;4.82;;;18.60;55.80;;;;;;10467689;28;20112;-59
2021/01/05 14:47:57;;;;;;;9.82;4.97;;;18.70;55.60;;;;;;10496711;28;20032;-58
2021/01/05 14:52:58;;;;;;;5.90;4.10;;;18.70;54.70;;;;;;10498953;28;20105;-58
2021/01/05 14:57:58;;;;;;;8.45;5.40;;;18.70;53.80;;;;;;10498565;28;20120;-59
2021/01/05 15:02:59;;;;;;;9.90;4.78;;;18.80;52.90;;;;;;10498865;28;20514;-58
2021/01/05 15:07:59;;;;;;;6.75;5.05;;;18.80;52.40;;;;;;10497953;28;20028;-58
2021/01/05 15:13:00;;;;;;;8.25;4.82;;;18.90;52.00;;;;;;10496471;28;20096;-60
2021/01/05 15:18:01;;;;;;;6.65;4.43;;;18.80;52.50;;;;;;10497128;28;20044;-60
2021/01/05 15:23:02;;;;;;;7.03;5.53;;;18.80;52.00;;;;;;10497760;28;20059;-60
2021/01/05 15:28:02;;;;;;;10.05;5.70;;;18.80;51.90;;;;;;10497418;28;20489;-60
2021/01/05 15:33:03;;;;;;;6.57;4.50;;;18.90;51.60;;;;;;10497464;28;20037;-60
2021/01/05 15:38:04;;;;;;;7.50;5.40;;;18.90;51.20;;;;;;10497388;28;20099;-60
2021/01/05 15:43:05;;;;;;;10.25;5.80;;;18.80;51.10;;;;;;10497267;28;20066;-61
2021/01/05 15:48:12;;;;;;;9.60;6.03;;;18.80;51.70;;;;;;10495247;28;20029;-61
2021/01/05 15:53:16;;;;;;;9.77;6.43;;;18.70;51.50;;;;;;10497553;28;20465;-61
2021/01/05 15:58:17;;;;;;;8.68;6.35;;;18.70;51.30;;;;;;10497805;28;20098;-61
2021/01/05 16:03:18;;;;;;;8.27;5.60;;;18.80;51.20;;;;;;10494605;28;20047;-62
2021/01/05 16:08:19;;;;;;;7.57;5.80;;;18.70;51.00;;;;;;10491886;28;20527;-62
2021/01/05 16:13:22;;;;;;;9.43;6.07;;;18.80;50.90;;;;;;10494073;28;20069;-62
2021/01/05 16:18:22;;;;;;;7.30;5.80;;;18.80;50.80;;;;;;10490379;28;20048;-61
2021/01/05 16:23:23;;;;;;;8.02;6.30;;;18.80;50.60;;;;;;10494820;28;20490;-61
2021/01/05 16:28:24;;;;;;;6.63;5.68;;;18.70;50.60;;;;;;10494626;28;20119;-61
2021/01/05 16:33:25;;;;;;;9.48;6.43;;;18.70;50.60;;;;;;10495701;28;20111;-61
2021/01/05 16:38:27;;;;;;;10.90;6.97;;;18.70;50.60;;;;;;10495898;28;20477;-61
2021/01/05 16:43:28;;;;;;;9.63;5.82;;;18.60;50.80;;;;;;10497653;28;20119;-59
2021/01/05 16:48:29;;;;;;;12.18;7.45;;;18.70;50.90;;;;;;10496117;28;20032;-58
2021/01/05 16:53:30;;;;;;;13.75;6.45;;;18.70;52.10;;;;;;10491828;28;20020;-62
2021/01/05 16:58:30;;;;;;;12.27;6.57;;;18.70;52.40;;;;;;10494980;28;20493;-61
2021/01/05 17:03:31;;;;;;;20.40;8.45;;;18.70;52.30;;;;;;10495163;28;20437;-58
2021/01/05 17:08:32;;;;;;;14.43;7.50;;;18.70;56.30;;;;;;10479574;28;20118;-59
2021/01/05 17:13:33;;;;;;;12.98;6.72;;;18.80;57.00;;;;;;10492167;28;20027;-59
2021/01/05 17:18:33;;;;;;;11.70;6.60;;;18.80;57.80;;;;;;10494846;28;20048;-60
2021/01/05 17:23:34;;;;;;;11.18;5.55;;;18.80;57.90;;;;;;10495252;28;20071;-60
2021/01/05 17:28:35;;;;;;;11.07;5.82;;;18.70;58.20;;;;;;10494912;28;20068;-58
2021/01/05 17:33:35;;;;;;;10.80;6.50;;;18.70;58.30;;;;;;10499979;28;20025;-65
2021/01/05 17:38:37;;;;;;;15.75;5.30;;;18.60;58.00;;;;;;10501901;28;20382;-65
2021/01/05 17:43:38;;;;;;;10.10;5.25;;;18.50;57.70;;;;;;10516752;28;20035;-63
2021/01/05 17:48:39;;;;;;;15.23;5.60;;;18.50;57.90;;;;;;10501551;28;20040;-64
2021/01/05 17:53:39;;;;;;;14.15;5.38;;;18.50;57.90;;;;;;10493270;28;20025;-64
2021/01/05 17:58:40;;;;;;;13.73;6.15;;;18.50;58.20;;;;;;10501609;28;20468;-64
2021/01/05 18:03:41;;;;;;;20.58;6.28;;;18.50;58.70;;;;;;10495281;28;20406;-63
2021/01/05 18:08:42;;;;;;;15.23;5.65;;;18.50;58.70;;;;;;10497229;28;20469;-64
2021/01/05 18:13:43;;;;;;;12.82;5.05;;;18.40;58.80;;;;;;10476531;28;20025;-62
2021/01/05 18:18:43;;;;;;;17.10;5.70;;;18.30;59.10;;;;;;10466699;28;20044;-61
2021/01/05 18:23:44;;;;;;;14.10;5.47;;;18.30;59.30;;;;;;10463235;28;20131;-61
2021/01/05 18:28:45;;;;;;;11.13;5.57;;;18.20;59.40;;;;;;10470590;28;20033;-63
2021/01/05 18:33:46;;;;;;;13.35;5.82;;;18.20;59.50;;;;;;10486175;28;20142;-61
2021/01/05 18:38:47;;;;;;;13.48;4.88;;;18.10;59.50;;;;;;10500197;28;20060;-66
2021/01/05 18:43:48;;;;;;;12.15;5.10;;;18.10;59.50;;;;;;10499225;28;20032;-63
2021/01/05 18:48:49;;;;;;;14.00;4.50;;;18.20;59.80;;;;;;10495980;28;20025;-61
2021/01/05 18:53:50;;;;;;;10.30;5.20;;;18.20;60.00;;;;;;10488682;28;20120;-62
2021/01/05 18:58:51;;;;;;;6.10;4.88;;;18.10;59.60;;;;;;10497983;28;20043;-60
2021/01/05 19:03:52;;;;;;;7.78;4.18;;;18.10;59.40;;;;;;10496687;28;20028;-62
2021/01/05 19:08:53;;;;;;;9.65;4.15;;;18.10;59.20;;;;;;10497456;28;20029;-62
2021/01/05 19:13:55;;;;;;;7.32;4.07;;;18.10;59.30;;;;;;10471583;28;20031;-61
2021/01/05 19:18:56;;;;;;;8.35;4.13;;;18.00;59.30;;;;;;10475075;28;20044;-61
2021/01/05 19:23:57;;;;;;;9.98;4.28;;;18.00;59.30;;;;;;10474889;28;20043;-61
2021/01/05 19:28:57;;;;;;;8.50;4.13;;;18.00;59.40;;;;;;10492198;28;20029;-61
2021/01/05 19:33:58;;;;;;;6.45;4.03;;;18.00;59.50;;;;;;10509638;28;20071;-62
2021/01/05 19:38:59;;;;;;;8.57;3.88;;;18.00;59.50;;;;;;10493865;28;20111;-63
2021/01/05 19:44:00;;;;;;;11.63;3.88;;;18.00;59.80;;;;;;10491254;28;20154;-62
2021/01/05 19:49:03;;;;;;;7.45;3.63;;;18.00;59.90;;;;;;10492532;28;20085;-64
2021/01/05 19:54:04;;;;;;;5.47;3.20;;;18.00;59.90;;;;;;10465767;28;20021;-62
2021/01/05 19:59:05;;;;;;;7.53;3.95;;;18.00;60.00;;;;;;10495516;28;20031;-63
2021/01/05 20:04:07;;;;;;;7.13;3.90;;;18.00;60.20;;;;;;10496873;28;20104;-63
2021/01/05 20:09:08;;;;;;;9.50;3.75;;;18.00;60.20;;;;;;10496804;28;20079;-62
2021/01/05 20:14:09;;;;;;;7.90;3.80;;;18.00;60.20;;;;;;10496518;28;20104;-62
2021/01/05 20:19:09;;;;;;;9.35;4.20;;;18.00;60.90;;;;;;10496016;28;20051;-61
2021/01/05 20:24:10;;;;;;;6.03;3.40;;;17.90;60.50;;;;;;10495214;28;20107;-61
2021/01/05 20:29:11;;;;;;;5.47;3.50;;;17.90;60.60;;;;;;10495575;28;20032;-63
2021/01/05 20:34:12;;;;;;;6.93;3.55;;;17.80;60.90;;;;;;10490424;28;20528;-62
2021/01/05 20:39:14;;;;;;;5.88;2.90;;;17.80;61.10;;;;;;10493944;28;20052;-62
2021/01/05 20:44:16;;;;;;;8.68;3.80;;;17.70;61.20;;;;;;10494644;28;20040;-61
2021/01/05 20:49:17;;;;;;;6.43;3.28;;;17.60;61.30;;;;;;10495710;28;20036;-63
2021/01/05 20:54:18;;;;;;;4.35;2.90;;;17.50;61.40;;;;;;10495000;28;20029;-61
2021/01/05 20:59:19;;;;;;;7.32;3.63;;;17.50;61.60;;;;;;10494185;28;20037;-62
2021/01/05 21:04:20;;;;;;;5.03;3.47;;;17.40;61.70;;;;;;10494179;28;20025;-65
2021/01/05 21:09:21;;;;;;;6.47;3.50;;;17.40;61.80;;;;;;10497466;28;20530;-66
2021/01/05 21:14:22;;;;;;;6.82;3.25;;;17.30;62.00;;;;;;10500388;28;20025;-65
2021/01/05 21:19:24;;;;;;;6.18;3.08;;;17.20;62.10;;;;;;10499364;28;20401;-65
2021/01/05 21:24:25;;;;;;;6.20;3.30;;;17.20;62.20;;;;;;10500352;28;20127;-65
2021/01/05 21:29:26;;;;;;;13.88;3.95;;;17.10;62.20;;;;;;10501304;28;20039;-65
2021/01/05 21:34:28;;;;;;;6.35;3.38;;;17.10;62.30;;;;;;10502064;28;20043;-65
2021/01/05 21:39:29;;;;;;;10.07;3.80;;;17.10;62.30;;;;;;10502154;28;20031;-65
2021/01/05 21:44:30;;;;;;;5.72;3.75;;;17.00;62.30;;;;;;10501564;28;20032;-65
2021/01/05 21:49:31;;;;;;;6.80;3.22;;;17.00;62.30;;;;;;10500585;28;20037;-65
2021/01/05 21:54:32;;;;;;;7.30;3.47;;;16.90;62.40;;;;;;10492392;28;20059;-65
2021/01/05 21:59:33;;;;;;;7.40;3.72;;;16.90;62.40;;;;;;10501258;28;20108;-64
2021/01/05 22:04:34;;;;;;;7.82;3.55;;;16.80;62.30;;;;;;10499811;28;20421;-64
2021/01/05 22:09:34;;;;;;;3.75;2.60;;;16.70;62.40;;;;;;10500891;28;20033;-64
2021/01/05 22:14:35;;;;;;;5.30;3.42;;;16.70;62.40;;;;;;10500159;28;20024;-64
2021/01/05 22:19:36;;;;;;;4.20;3.30;;;16.70;62.40;;;;;;10499035;28;20059;-64
2021/01/05 22:24:36;;;;;;;4.28;3.17;;;16.60;62.40;;;;;;10515923;28;20119;-64
2021/01/05 22:29:37;;;;;;;5.80;3.53;;;16.60;62.50;;;;;;10482338;28;20032;-64
2021/01/05 22:34:38;;;;;;;6.07;3.45;;;16.60;62.60;;;;;;10499823;28;20103;-64
2021/01/05 22:39:39;;;;;;;4.95;3.65;;;16.60;62.60;;;;;;10499867;28;20549;-64
2021/01/05 22:44:40;;;;;;;5.05;3.28;;;16.50;62.60;;;;;;10497312;28;20043;-64
2021/01/05 22:49:41;;;;;;;4.30;2.90;;;16.50;62.60;;;;;;10497749;28;20497;-65
2021/01/05 22:54:42;;;;;;;4.25;2.97;;;16.40;62.60;;;;;;10498555;28;20038;-65
2021/01/05 22:59:42;;;;;;;5.18;3.25;;;16.40;62.60;;;;;;10498807;28;20067;-64
2021/01/05 23:04:43;;;;;;;4.25;3.00;;;16.40;62.60;;;;;;10497035;28;20064;-65
2021/01/05 23:09:48;;;;;;;6.38;3.28;;;16.30;62.60;;;;;;10496752;28;20032;-64
2021/01/05 23:14:49;;;;;;;4.47;2.90;;;16.30;62.60;;;;;;10497828;28;20071;-65
2021/01/05 23:19:50;;;;;;;4.93;3.47;;;16.30;62.60;;;;;;10497529;28;20116;-65
2021/01/05 23:24:50;;;;;;;4.85;3.30;;;16.30;62.70;;;;;;10496852;28;20028;-64
2021/01/05 23:29:51;;;;;;;4.85;3.00;;;16.30;62.80;;;;;;10496949;28;20468;-64
2021/01/05 23:34:52;;;;;;;4.50;2.50;;;16.30;62.80;;;;;;10496895;28;20154;-64
2021/01/05 23:39:53;;;;;;;3.70;2.85;;;16.20;62.80;;;;;;10497023;28;20033;-65
2021/01/05 23:44:53;;;;;;;4.88;3.25;;;16.20;62.80;;;;;;10496860;28;20354;-65
2021/01/05 23:49:54;;;;;;;4.65;2.70;;;16.20;62.80;;;;;;10495386;28;20187;-65
2021/01/05 23:54:55;;;;;;;3.83;2.92;;;16.20;62.80;;;;;;10496105;28;20016;-65
2021/01/05 23:59:56;;;;;;;4.45;2.47;;;16.20;62.80;;;;;;10496757;28;20109;-64
